<?xml version='1.0' encoding='UTF-8'?><gpx version="1.1" creator="JPX - https://github.com/jenetics/jpx" xmlns="http://www.topografix.com/GPX/1/1"><trk><trkseg><trkpt lat="45.334717" lon="8.4027656"><ele>127.0</ele><time>2026-05-03T16:59:23.618Z</time></trkpt><trkpt lat="45.3345946" lon="8.4029819"><ele>127.0</ele><time>2026-05-03T16:59:27.143Z</time></trkpt><trkpt lat="45.3345433" lon="8.4030776"><ele>127.0</ele><time>2026-05-03T16:59:28.192Z</time></trkpt><trkpt lat="45.3345335" lon="8.4031909"><ele>127.0</ele><time>2026-05-03T16:59:30.101Z</time></trkpt><trkpt lat="45.334616" lon="8.4032667"><ele>127.6</ele><time>2026-05-03T16:59:32.001Z</time></trkpt><trkpt lat="45.3347282" lon="8.4032752"><ele>128.2</ele><time>2026-05-03T16:59:34.192Z</time></trkpt><trkpt lat="45.3347506" lon="8.4033981"><ele>128.8</ele><time>2026-05-03T16:59:48.191Z</time></trkpt><trkpt lat="45.3347289" lon="8.4035296"><ele>129.4</ele><time>2026-05-03T16:59:50.195Z</time></trkpt><trkpt lat="45.3347117" lon="8.403644"><ele>130.0</ele><time>2026-05-03T16:59:52.201Z</time></trkpt><trkpt lat="45.3347414" lon="8.4037677"><ele>130.0</ele><time>2026-05-03T16:59:55.196Z</time></trkpt><trkpt lat="45.3348322" lon="8.4038215"><ele>130.0</ele><time>2026-05-03T16:59:57.199Z</time></trkpt><trkpt lat="45.3349228" lon="8.4038489"><ele>130.0</ele><time>2026-05-03T16:59:59.195Z</time></trkpt><trkpt lat="45.3349921" lon="8.4039134"><ele>130.0</ele><time>2026-05-03T17:00:01.197Z</time></trkpt><trkpt lat="45.3349982" lon="8.4040581"><ele>130.0</ele><time>2026-05-03T17:00:03.193Z</time></trkpt><trkpt lat="45.3349578" lon="8.404196"><ele>130.0</ele><time>2026-05-03T17:00:05.2Z</time></trkpt><trkpt lat="45.3349201" lon="8.4043393"><ele>130.0</ele><time>2026-05-03T17:00:07.196Z</time></trkpt><trkpt lat="45.3348832" lon="8.4044947"><ele>130.0</ele><time>2026-05-03T17:00:09.196Z</time></trkpt><trkpt lat="45.334849" lon="8.4046459"><ele>130.0</ele><time>2026-05-03T17:00:11.19Z</time></trkpt><trkpt lat="45.3348142" lon="8.4048096"><ele>130.0</ele><time>2026-05-03T17:00:13.19Z</time></trkpt><trkpt lat="45.3347869" lon="8.4049723"><ele>130.0</ele><time>2026-05-03T17:00:15.193Z</time></trkpt><trkpt lat="45.334768" lon="8.4050593"><ele>130.0</ele><time>2026-05-03T17:00:16.193Z</time></trkpt><trkpt lat="45.3347395" lon="8.4052377"><ele>130.0</ele><time>2026-05-03T17:00:18.191Z</time></trkpt><trkpt lat="45.3347287" lon="8.4053289"><ele>130.0</ele><time>2026-05-03T17:00:19.196Z</time></trkpt><trkpt lat="45.3347148" lon="8.4055039"><ele>129.8</ele><time>2026-05-03T17:00:21.195Z</time></trkpt><trkpt lat="45.334695" lon="8.4056803"><ele>129.6</ele><time>2026-05-03T17:00:23.193Z</time></trkpt><trkpt lat="45.3346902" lon="8.4058639"><ele>129.4</ele><time>2026-05-03T17:00:25.203Z</time></trkpt><trkpt lat="45.3346848" lon="8.4059622"><ele>129.2</ele><time>2026-05-03T17:00:26.194Z</time></trkpt><trkpt lat="45.3346799" lon="8.4060558"><ele>129.0</ele><time>2026-05-03T17:00:27.192Z</time></trkpt><trkpt lat="45.3346784" lon="8.406152"><ele>128.99999999999997</ele><time>2026-05-03T17:00:28.192Z</time></trkpt><trkpt lat="45.3346768" lon="8.40625"><ele>129.0</ele><time>2026-05-03T17:00:29.199Z</time></trkpt><trkpt lat="45.3346765" lon="8.4063507"><ele>129.0</ele><time>2026-05-03T17:00:30.196Z</time></trkpt><trkpt lat="45.3346788" lon="8.4064463"><ele>129.0</ele><time>2026-05-03T17:00:31.199Z</time></trkpt><trkpt lat="45.3346803" lon="8.4065519"><ele>129.0</ele><time>2026-05-03T17:00:32.195Z</time></trkpt><trkpt lat="45.3346847" lon="8.4066479"><ele>128.99999999999997</ele><time>2026-05-03T17:00:33.19Z</time></trkpt><trkpt lat="45.3346897" lon="8.406741"><ele>129.0</ele><time>2026-05-03T17:00:34.192Z</time></trkpt><trkpt lat="45.3346893" lon="8.4068369"><ele>129.5</ele><time>2026-05-03T17:00:35.191Z</time></trkpt><trkpt lat="45.3346877" lon="8.4069269"><ele>130.0</ele><time>2026-05-03T17:00:36.2Z</time></trkpt><trkpt lat="45.334668" lon="8.4070203"><ele>130.5</ele><time>2026-05-03T17:00:37.204Z</time></trkpt><trkpt lat="45.3346403" lon="8.4071142"><ele>131.0</ele><time>2026-05-03T17:00:38.194Z</time></trkpt><trkpt lat="45.3346088" lon="8.4072029"><ele>131.5</ele><time>2026-05-03T17:00:39.192Z</time></trkpt><trkpt lat="45.3345764" lon="8.4072803"><ele>132.0</ele><time>2026-05-03T17:00:40.189Z</time></trkpt><trkpt lat="45.334503" lon="8.4074231"><ele>132.2</ele><time>2026-05-03T17:00:42.191Z</time></trkpt><trkpt lat="45.334488" lon="8.4075805"><ele>132.39999999999998</ele><time>2026-05-03T17:00:44.196Z</time></trkpt><trkpt lat="45.334546" lon="8.4076814"><ele>132.60000000000002</ele><time>2026-05-03T17:00:46.198Z</time></trkpt><trkpt lat="45.3346584" lon="8.4076799"><ele>132.8</ele><time>2026-05-03T17:00:48.192Z</time></trkpt><trkpt lat="45.3347753" lon="8.4076216"><ele>133.0</ele><time>2026-05-03T17:00:50.194Z</time></trkpt><trkpt lat="45.3348354" lon="8.4075889"><ele>132.42857142857142</ele><time>2026-05-03T17:00:51.197Z</time></trkpt><trkpt lat="45.334895" lon="8.4075555"><ele>131.85714285714286</ele><time>2026-05-03T17:00:52.193Z</time></trkpt><trkpt lat="45.3349539" lon="8.4075236"><ele>131.28571428571428</ele><time>2026-05-03T17:00:53.197Z</time></trkpt><trkpt lat="45.3350143" lon="8.4074862"><ele>130.71428571428572</ele><time>2026-05-03T17:00:54.2Z</time></trkpt><trkpt lat="45.3350759" lon="8.4074482"><ele>130.14285714285714</ele><time>2026-05-03T17:00:55.193Z</time></trkpt><trkpt lat="45.3351354" lon="8.4074074"><ele>129.57142857142856</ele><time>2026-05-03T17:00:56.197Z</time></trkpt><trkpt lat="45.3351936" lon="8.4073683"><ele>129.0</ele><time>2026-05-03T17:00:57.193Z</time></trkpt><trkpt lat="45.3352511" lon="8.407327"><ele>129.0</ele><time>2026-05-03T17:00:58.195Z</time></trkpt><trkpt lat="45.3353071" lon="8.4072855"><ele>129.0</ele><time>2026-05-03T17:00:59.196Z</time></trkpt><trkpt lat="45.3353676" lon="8.4072436"><ele>129.0</ele><time>2026-05-03T17:01:00.194Z</time></trkpt><trkpt lat="45.3354258" lon="8.4071998"><ele>129.0</ele><time>2026-05-03T17:01:01.192Z</time></trkpt><trkpt lat="45.3354814" lon="8.4071555"><ele>129.0</ele><time>2026-05-03T17:01:02.195Z</time></trkpt><trkpt lat="45.3355926" lon="8.4070811"><ele>129.0</ele><time>2026-05-03T17:01:04.197Z</time></trkpt><trkpt lat="45.3356527" lon="8.4070397"><ele>129.2</ele><time>2026-05-03T17:01:05.2Z</time></trkpt><trkpt lat="45.3357123" lon="8.4070014"><ele>129.4</ele><time>2026-05-03T17:01:06.191Z</time></trkpt><trkpt lat="45.3358222" lon="8.4069155"><ele>129.6</ele><time>2026-05-03T17:01:08.195Z</time></trkpt><trkpt lat="45.335881" lon="8.406883"><ele>129.8</ele><time>2026-05-03T17:01:09.193Z</time></trkpt><trkpt lat="45.3359909" lon="8.4068084"><ele>130.0</ele><time>2026-05-03T17:01:11.196Z</time></trkpt><trkpt lat="45.3361042" lon="8.4067347"><ele>130.0</ele><time>2026-05-03T17:01:13.202Z</time></trkpt><trkpt lat="45.3361612" lon="8.4066956"><ele>130.0</ele><time>2026-05-03T17:01:14.197Z</time></trkpt><trkpt lat="45.3362727" lon="8.4066212"><ele>130.0</ele><time>2026-05-03T17:01:16.198Z</time></trkpt><trkpt lat="45.3363779" lon="8.4065532"><ele>130.0</ele><time>2026-05-03T17:01:18.198Z</time></trkpt><trkpt lat="45.3364913" lon="8.4064775"><ele>130.0</ele><time>2026-05-03T17:01:20.196Z</time></trkpt><trkpt lat="45.3365486" lon="8.4064398"><ele>129.85714285714286</ele><time>2026-05-03T17:01:21.199Z</time></trkpt><trkpt lat="45.3366044" lon="8.4063981"><ele>129.71428571428572</ele><time>2026-05-03T17:01:22.197Z</time></trkpt><trkpt lat="45.336665" lon="8.4063578"><ele>129.57142857142856</ele><time>2026-05-03T17:01:23.197Z</time></trkpt><trkpt lat="45.3367265" lon="8.4063242"><ele>129.42857142857144</ele><time>2026-05-03T17:01:24.197Z</time></trkpt><trkpt lat="45.3367851" lon="8.406285"><ele>129.28571428571428</ele><time>2026-05-03T17:01:25.199Z</time></trkpt><trkpt lat="45.3368436" lon="8.4062431"><ele>129.14285714285714</ele><time>2026-05-03T17:01:26.192Z</time></trkpt><trkpt lat="45.3369012" lon="8.4061996"><ele>129.0</ele><time>2026-05-03T17:01:27.192Z</time></trkpt><trkpt lat="45.3369592" lon="8.4061583"><ele>129.0</ele><time>2026-05-03T17:01:28.195Z</time></trkpt><trkpt lat="45.3370664" lon="8.4060712"><ele>129.0</ele><time>2026-05-03T17:01:30.2Z</time></trkpt><trkpt lat="45.3371792" lon="8.405995"><ele>129.0</ele><time>2026-05-03T17:01:32.196Z</time></trkpt><trkpt lat="45.3372363" lon="8.4059554"><ele>129.0</ele><time>2026-05-03T17:01:33.193Z</time></trkpt><trkpt lat="45.337347" lon="8.4058724"><ele>129.0</ele><time>2026-05-03T17:01:35.203Z</time></trkpt><trkpt lat="45.3374039" lon="8.4058339"><ele>129.33333333333334</ele><time>2026-05-03T17:01:36.198Z</time></trkpt><trkpt lat="45.3374646" lon="8.405796"><ele>129.66666666666666</ele><time>2026-05-03T17:01:37.194Z</time></trkpt><trkpt lat="45.3375216" lon="8.405757"><ele>130.0</ele><time>2026-05-03T17:01:38.194Z</time></trkpt><trkpt lat="45.3375793" lon="8.4057056"><ele>130.33333333333331</ele><time>2026-05-03T17:01:39.194Z</time></trkpt><trkpt lat="45.3376873" lon="8.4056462"><ele>130.66666666666666</ele><time>2026-05-03T17:01:41.193Z</time></trkpt><trkpt lat="45.3377437" lon="8.405603"><ele>131.0</ele><time>2026-05-03T17:01:42.198Z</time></trkpt><trkpt lat="45.3378459" lon="8.4055291"><ele>131.0</ele><time>2026-05-03T17:01:44.192Z</time></trkpt><trkpt lat="45.3379588" lon="8.4054575"><ele>131.0</ele><time>2026-05-03T17:01:46.193Z</time></trkpt><trkpt lat="45.3380682" lon="8.4053693"><ele>131.0</ele><time>2026-05-03T17:01:48.195Z</time></trkpt><trkpt lat="45.3381762" lon="8.4052941"><ele>131.0</ele><time>2026-05-03T17:01:50.192Z</time></trkpt><trkpt lat="45.3382342" lon="8.4052575"><ele>131.0</ele><time>2026-05-03T17:01:51.195Z</time></trkpt><trkpt lat="45.3383471" lon="8.4051866"><ele>131.16666666666666</ele><time>2026-05-03T17:01:53.193Z</time></trkpt><trkpt lat="45.3384048" lon="8.405147"><ele>131.33333333333331</ele><time>2026-05-03T17:01:54.199Z</time></trkpt><trkpt lat="45.3384653" lon="8.4051086"><ele>131.5</ele><time>2026-05-03T17:01:55.2Z</time></trkpt><trkpt lat="45.3385227" lon="8.4050704"><ele>131.66666666666666</ele><time>2026-05-03T17:01:56.195Z</time></trkpt><trkpt lat="45.338631" lon="8.4049928"><ele>131.83333333333334</ele><time>2026-05-03T17:01:58.194Z</time></trkpt><trkpt lat="45.3387361" lon="8.4049093"><ele>132.0</ele><time>2026-05-03T17:02:00.196Z</time></trkpt><trkpt lat="45.3388434" lon="8.4048351"><ele>132.0</ele><time>2026-05-03T17:02:02.193Z</time></trkpt><trkpt lat="45.3389474" lon="8.404759"><ele>132.0</ele><time>2026-05-03T17:02:04.192Z</time></trkpt><trkpt lat="45.3390435" lon="8.4047005"><ele>132.0</ele><time>2026-05-03T17:02:06.197Z</time></trkpt><trkpt lat="45.3390674" lon="8.4046153"><ele>132.0</ele><time>2026-05-03T17:02:08.192Z</time></trkpt><trkpt lat="45.3389643" lon="8.404651"><ele>132.0</ele><time>2026-05-03T17:02:11.203Z</time></trkpt><trkpt lat="45.3388739" lon="8.404716"><ele>132.0</ele><time>2026-05-03T17:02:13.2Z</time></trkpt><trkpt lat="45.3387846" lon="8.4047632"><ele>132.0</ele><time>2026-05-03T17:02:15.197Z</time></trkpt><trkpt lat="45.3386875" lon="8.4048159"><ele>132.0</ele><time>2026-05-03T17:02:17.205Z</time></trkpt><trkpt lat="45.3385946" lon="8.4048669"><ele>132.0</ele><time>2026-05-03T17:02:19.193Z</time></trkpt><trkpt lat="45.338497" lon="8.4049263"><ele>132.0</ele><time>2026-05-03T17:02:21.199Z</time></trkpt><trkpt lat="45.3383992" lon="8.4050056"><ele>132.0</ele><time>2026-05-03T17:02:23.196Z</time></trkpt><trkpt lat="45.3383021" lon="8.4050922"><ele>132.0</ele><time>2026-05-03T17:02:25.2Z</time></trkpt><trkpt lat="45.3382042" lon="8.4051572"><ele>132.0</ele><time>2026-05-03T17:02:27.198Z</time></trkpt><trkpt lat="45.3381086" lon="8.4052285"><ele>132.0</ele><time>2026-05-03T17:02:29.194Z</time></trkpt><trkpt lat="45.3380324" lon="8.4052884"><ele>132.0</ele><time>2026-05-03T17:02:31.195Z</time></trkpt><trkpt lat="45.3379549" lon="8.4053493"><ele>131.79999999999998</ele><time>2026-05-03T17:02:33.196Z</time></trkpt><trkpt lat="45.3378706" lon="8.4054094"><ele>131.6</ele><time>2026-05-03T17:02:35.192Z</time></trkpt><trkpt lat="45.3377788" lon="8.4054833"><ele>131.39999999999998</ele><time>2026-05-03T17:02:37.202Z</time></trkpt><trkpt lat="45.3376932" lon="8.4055224"><ele>131.2</ele><time>2026-05-03T17:02:39.204Z</time></trkpt><trkpt lat="45.3376291" lon="8.4055873"><ele>131.0</ele><time>2026-05-03T17:02:41.197Z</time></trkpt><trkpt lat="45.337554" lon="8.4056541"><ele>131.0</ele><time>2026-05-03T17:02:43.193Z</time></trkpt><trkpt lat="45.3374897" lon="8.4057357"><ele>131.0</ele><time>2026-05-03T17:02:45.194Z</time></trkpt><trkpt lat="45.3374666" lon="8.4058529"><ele>131.0</ele><time>2026-05-03T17:02:47.198Z</time></trkpt><trkpt lat="45.337496" lon="8.4059849"><ele>131.0</ele><time>2026-05-03T17:02:49.197Z</time></trkpt><trkpt lat="45.337564" lon="8.4061006"><ele>131.0</ele><time>2026-05-03T17:02:51.196Z</time></trkpt><trkpt lat="45.3376204" lon="8.4062351"><ele>130.75</ele><time>2026-05-03T17:02:53.193Z</time></trkpt><trkpt lat="45.3376847" lon="8.4063562"><ele>130.5</ele><time>2026-05-03T17:02:55.191Z</time></trkpt><trkpt lat="45.3377591" lon="8.4064821"><ele>130.25</ele><time>2026-05-03T17:02:57.193Z</time></trkpt><trkpt lat="45.3378157" lon="8.4066267"><ele>130.0</ele><time>2026-05-03T17:02:59.196Z</time></trkpt><trkpt lat="45.337876" lon="8.4067665"><ele>130.0</ele><time>2026-05-03T17:03:01.194Z</time></trkpt><trkpt lat="45.3379381" lon="8.4068952"><ele>130.0</ele><time>2026-05-03T17:03:03.196Z</time></trkpt><trkpt lat="45.3380082" lon="8.407018"><ele>130.0</ele><time>2026-05-03T17:03:05.205Z</time></trkpt><trkpt lat="45.3380684" lon="8.4071365"><ele>130.0</ele><time>2026-05-03T17:03:07.193Z</time></trkpt><trkpt lat="45.3381406" lon="8.4072568"><ele>130.0</ele><time>2026-05-03T17:03:09.196Z</time></trkpt><trkpt lat="45.3382102" lon="8.4073998"><ele>129.5</ele><time>2026-05-03T17:03:11.192Z</time></trkpt><trkpt lat="45.3383015" lon="8.4075271"><ele>129.0</ele><time>2026-05-03T17:03:13.193Z</time></trkpt><trkpt lat="45.3383464" lon="8.4075992"><ele>128.5</ele><time>2026-05-03T17:03:14.196Z</time></trkpt><trkpt lat="45.3383941" lon="8.4076748"><ele>128.0</ele><time>2026-05-03T17:03:15.198Z</time></trkpt><trkpt lat="45.3384338" lon="8.4077505"><ele>127.50000000000001</ele><time>2026-05-03T17:03:16.19Z</time></trkpt><trkpt lat="45.3384817" lon="8.4078135"><ele>127.0</ele><time>2026-05-03T17:03:17.192Z</time></trkpt><trkpt lat="45.338546" lon="8.407951"><ele>126.83333333333334</ele><time>2026-05-03T17:03:19.195Z</time></trkpt><trkpt lat="45.3385716" lon="8.4080337"><ele>126.66666666666667</ele><time>2026-05-03T17:03:20.195Z</time></trkpt><trkpt lat="45.3386495" lon="8.4081823"><ele>126.5</ele><time>2026-05-03T17:03:22.196Z</time></trkpt><trkpt lat="45.3386963" lon="8.4082599"><ele>126.33333333333334</ele><time>2026-05-03T17:03:23.197Z</time></trkpt><trkpt lat="45.3387398" lon="8.4083429"><ele>126.16666666666667</ele><time>2026-05-03T17:03:24.196Z</time></trkpt><trkpt lat="45.3387841" lon="8.4084254"><ele>126.0</ele><time>2026-05-03T17:03:25.196Z</time></trkpt><trkpt lat="45.3388323" lon="8.4085062"><ele>126.0</ele><time>2026-05-03T17:03:26.197Z</time></trkpt><trkpt lat="45.338871" lon="8.4085788"><ele>126.0</ele><time>2026-05-03T17:03:27.2Z</time></trkpt><trkpt lat="45.3389134" lon="8.4086601"><ele>126.0</ele><time>2026-05-03T17:03:28.194Z</time></trkpt><trkpt lat="45.3389578" lon="8.4087412"><ele>126.0</ele><time>2026-05-03T17:03:29.194Z</time></trkpt><trkpt lat="45.3389979" lon="8.4088254"><ele>126.0</ele><time>2026-05-03T17:03:30.201Z</time></trkpt><trkpt lat="45.3390429" lon="8.4089076"><ele>126.0</ele><time>2026-05-03T17:03:31.197Z</time></trkpt><trkpt lat="45.3390872" lon="8.4089855"><ele>126.0</ele><time>2026-05-03T17:03:32.192Z</time></trkpt><trkpt lat="45.3391317" lon="8.4090681"><ele>126.16666666666667</ele><time>2026-05-03T17:03:33.193Z</time></trkpt><trkpt lat="45.339174" lon="8.4091402"><ele>126.33333333333334</ele><time>2026-05-03T17:03:34.199Z</time></trkpt><trkpt lat="45.3392206" lon="8.4092059"><ele>126.5</ele><time>2026-05-03T17:03:35.193Z</time></trkpt><trkpt lat="45.3392809" lon="8.4093533"><ele>126.66666666666667</ele><time>2026-05-03T17:03:37.194Z</time></trkpt><trkpt lat="45.339266" lon="8.4094904"><ele>126.83333333333334</ele><time>2026-05-03T17:03:39.198Z</time></trkpt><trkpt lat="45.3392397" lon="8.4096034"><ele>127.0</ele><time>2026-05-03T17:03:41.197Z</time></trkpt><trkpt lat="45.339274" lon="8.4096911"><ele>127.0</ele><time>2026-05-03T17:03:43.195Z</time></trkpt><trkpt lat="45.3393361" lon="8.4097615"><ele>126.99999999999999</ele><time>2026-05-03T17:03:45.198Z</time></trkpt><trkpt lat="45.3393625" lon="8.4098852"><ele>126.99999999999999</ele><time>2026-05-03T17:03:47.193Z</time></trkpt><trkpt lat="45.3393537" lon="8.4100222"><ele>127.0</ele><time>2026-05-03T17:03:49.194Z</time></trkpt><trkpt lat="45.339353" lon="8.410165"><ele>127.0</ele><time>2026-05-03T17:03:51.202Z</time></trkpt><trkpt lat="45.3393362" lon="8.4103133"><ele>127.0</ele><time>2026-05-03T17:03:53.194Z</time></trkpt><trkpt lat="45.3393208" lon="8.4104635"><ele>126.99999999999999</ele><time>2026-05-03T17:03:55.201Z</time></trkpt><trkpt lat="45.3393043" lon="8.4106123"><ele>126.99999999999999</ele><time>2026-05-03T17:03:57.199Z</time></trkpt><trkpt lat="45.3392972" lon="8.4107611"><ele>127.0</ele><time>2026-05-03T17:03:59.191Z</time></trkpt><trkpt lat="45.3393476" lon="8.4108814"><ele>127.0</ele><time>2026-05-03T17:04:01.193Z</time></trkpt><trkpt lat="45.3394519" lon="8.4109097"><ele>127.0</ele><time>2026-05-03T17:04:03.193Z</time></trkpt><trkpt lat="45.339564" lon="8.4109035"><ele>127.0</ele><time>2026-05-03T17:04:05.194Z</time></trkpt><trkpt lat="45.3396806" lon="8.4109032"><ele>127.0</ele><time>2026-05-03T17:04:07.192Z</time></trkpt><trkpt lat="45.3397972" lon="8.4108978"><ele>127.0</ele><time>2026-05-03T17:04:09.2Z</time></trkpt><trkpt lat="45.3399094" lon="8.4108896"><ele>127.00000000000001</ele><time>2026-05-03T17:04:11.194Z</time></trkpt><trkpt lat="45.3400179" lon="8.4108936"><ele>127.0</ele><time>2026-05-03T17:04:13.191Z</time></trkpt><trkpt lat="45.3400825" lon="8.4109517"><ele>127.0</ele><time>2026-05-03T17:04:15.196Z</time></trkpt><trkpt lat="45.3400873" lon="8.4110637"><ele>127.0</ele><time>2026-05-03T17:04:17.196Z</time></trkpt><trkpt lat="45.3400964" lon="8.4111879"><ele>127.00000000000001</ele><time>2026-05-03T17:04:19.198Z</time></trkpt><trkpt lat="45.3400863" lon="8.4113222"><ele>127.0</ele><time>2026-05-03T17:04:21.192Z</time></trkpt><trkpt lat="45.3400821" lon="8.4114611"><ele>127.0</ele><time>2026-05-03T17:04:23.196Z</time></trkpt><trkpt lat="45.340082" lon="8.4116077"><ele>126.99999999999999</ele><time>2026-05-03T17:04:25.196Z</time></trkpt><trkpt lat="45.3400809" lon="8.411747"><ele>126.99999999999999</ele><time>2026-05-03T17:04:27.201Z</time></trkpt><trkpt lat="45.3400828" lon="8.4118986"><ele>127.0</ele><time>2026-05-03T17:04:29.198Z</time></trkpt><trkpt lat="45.3400825" lon="8.412052"><ele>127.0</ele><time>2026-05-03T17:04:31.193Z</time></trkpt><trkpt lat="45.3400857" lon="8.4122119"><ele>126.75</ele><time>2026-05-03T17:04:33.193Z</time></trkpt><trkpt lat="45.3400877" lon="8.4123688"><ele>126.5</ele><time>2026-05-03T17:04:35.196Z</time></trkpt><trkpt lat="45.340095" lon="8.412532"><ele>126.25</ele><time>2026-05-03T17:04:37.193Z</time></trkpt><trkpt lat="45.3400998" lon="8.4126952"><ele>126.0</ele><time>2026-05-03T17:04:39.191Z</time></trkpt><trkpt lat="45.3400996" lon="8.412864"><ele>125.75</ele><time>2026-05-03T17:04:41.199Z</time></trkpt><trkpt lat="45.3401074" lon="8.4130293"><ele>125.5</ele><time>2026-05-03T17:04:43.194Z</time></trkpt><trkpt lat="45.3401397" lon="8.4131931"><ele>125.25</ele><time>2026-05-03T17:04:45.191Z</time></trkpt><trkpt lat="45.3401938" lon="8.4133379"><ele>125.0</ele><time>2026-05-03T17:04:47.19Z</time></trkpt><trkpt lat="45.3402651" lon="8.4134744"><ele>125.0</ele><time>2026-05-03T17:04:49.191Z</time></trkpt><trkpt lat="45.3403058" lon="8.4135444"><ele>125.0</ele><time>2026-05-03T17:04:50.193Z</time></trkpt><trkpt lat="45.3403871" lon="8.4136747"><ele>125.0</ele><time>2026-05-03T17:04:52.193Z</time></trkpt><trkpt lat="45.3404654" lon="8.4138165"><ele>125.0</ele><time>2026-05-03T17:04:54.2Z</time></trkpt><trkpt lat="45.3405468" lon="8.4139523"><ele>125.0</ele><time>2026-05-03T17:04:56.192Z</time></trkpt><trkpt lat="45.3406235" lon="8.4140819"><ele>125.0</ele><time>2026-05-03T17:04:58.194Z</time></trkpt><trkpt lat="45.3406967" lon="8.41421"><ele>125.0</ele><time>2026-05-03T17:05:00.193Z</time></trkpt><trkpt lat="45.3407667" lon="8.4143411"><ele>125.0</ele><time>2026-05-03T17:05:02.191Z</time></trkpt><trkpt lat="45.3408389" lon="8.4144712"><ele>125.0</ele><time>2026-05-03T17:05:04.19Z</time></trkpt><trkpt lat="45.3409131" lon="8.4145985"><ele>125.0</ele><time>2026-05-03T17:05:06.193Z</time></trkpt><trkpt lat="45.3409896" lon="8.4147267"><ele>125.0</ele><time>2026-05-03T17:05:08.193Z</time></trkpt><trkpt lat="45.3410644" lon="8.4148531"><ele>125.0</ele><time>2026-05-03T17:05:10.197Z</time></trkpt><trkpt lat="45.3411311" lon="8.4149853"><ele>125.0</ele><time>2026-05-03T17:05:12.191Z</time></trkpt><trkpt lat="45.3411603" lon="8.4151257"><ele>124.99999999999999</ele><time>2026-05-03T17:05:14.194Z</time></trkpt><trkpt lat="45.3411703" lon="8.4152181"><ele>125.0</ele><time>2026-05-03T17:05:16.196Z</time></trkpt><trkpt lat="45.3411319" lon="8.4152968"><ele>125.0</ele><time>2026-05-03T17:05:18.193Z</time></trkpt><trkpt lat="45.3410445" lon="8.415366"><ele>125.0</ele><time>2026-05-03T17:05:20.197Z</time></trkpt><trkpt lat="45.3409485" lon="8.4154263"><ele>124.99999999999999</ele><time>2026-05-03T17:05:22.201Z</time></trkpt><trkpt lat="45.3408502" lon="8.4154857"><ele>125.0</ele><time>2026-05-03T17:05:24.204Z</time></trkpt><trkpt lat="45.3407411" lon="8.4155487"><ele>125.0</ele><time>2026-05-03T17:05:26.199Z</time></trkpt><trkpt lat="45.3406427" lon="8.4156071"><ele>125.0</ele><time>2026-05-03T17:05:28.192Z</time></trkpt><trkpt lat="45.3405419" lon="8.4156682"><ele>125.0</ele><time>2026-05-03T17:05:30.196Z</time></trkpt><trkpt lat="45.3404375" lon="8.4157244"><ele>125.0</ele><time>2026-05-03T17:05:32.2Z</time></trkpt><trkpt lat="45.3403378" lon="8.4157872"><ele>125.0</ele><time>2026-05-03T17:05:34.197Z</time></trkpt><trkpt lat="45.3402376" lon="8.4158501"><ele>124.8</ele><time>2026-05-03T17:05:36.2Z</time></trkpt><trkpt lat="45.3401364" lon="8.4159145"><ele>124.6</ele><time>2026-05-03T17:05:38.196Z</time></trkpt><trkpt lat="45.3400415" lon="8.4159898"><ele>124.4</ele><time>2026-05-03T17:05:40.194Z</time></trkpt><trkpt lat="45.339952" lon="8.416073"><ele>124.2</ele><time>2026-05-03T17:05:42.193Z</time></trkpt><trkpt lat="45.3398677" lon="8.416157"><ele>124.0</ele><time>2026-05-03T17:05:44.197Z</time></trkpt><trkpt lat="45.3397831" lon="8.4162559"><ele>124.6</ele><time>2026-05-03T17:05:46.189Z</time></trkpt><trkpt lat="45.3397071" lon="8.4163613"><ele>125.2</ele><time>2026-05-03T17:05:48.189Z</time></trkpt><trkpt lat="45.3396301" lon="8.4164618"><ele>125.79999999999998</ele><time>2026-05-03T17:05:50.192Z</time></trkpt><trkpt lat="45.3395495" lon="8.4165532"><ele>126.39999999999999</ele><time>2026-05-03T17:05:52.195Z</time></trkpt><trkpt lat="45.3394715" lon="8.4166515"><ele>127.0</ele><time>2026-05-03T17:05:54.198Z</time></trkpt><trkpt lat="45.3393914" lon="8.4167347"><ele>127.0</ele><time>2026-05-03T17:05:56.192Z</time></trkpt><trkpt lat="45.3393084" lon="8.416816"><ele>126.99999999999999</ele><time>2026-05-03T17:05:58.19Z</time></trkpt><trkpt lat="45.3392258" lon="8.416899"><ele>126.99999999999999</ele><time>2026-05-03T17:06:00.19Z</time></trkpt><trkpt lat="45.3391577" lon="8.4170106"><ele>127.0</ele><time>2026-05-03T17:06:02.192Z</time></trkpt><trkpt lat="45.3391143" lon="8.4171495"><ele>127.0</ele><time>2026-05-03T17:06:04.197Z</time></trkpt><trkpt lat="45.3391079" lon="8.4172993"><ele>127.19999999999999</ele><time>2026-05-03T17:06:06.195Z</time></trkpt><trkpt lat="45.3391314" lon="8.4174431"><ele>127.39999999999999</ele><time>2026-05-03T17:06:08.198Z</time></trkpt><trkpt lat="45.3391976" lon="8.4175341"><ele>127.60000000000001</ele><time>2026-05-03T17:06:10.196Z</time></trkpt><trkpt lat="45.3392767" lon="8.4176158"><ele>127.80000000000001</ele><time>2026-05-03T17:06:12.199Z</time></trkpt><trkpt lat="45.3393556" lon="8.4177056"><ele>128.0</ele><time>2026-05-03T17:06:14.189Z</time></trkpt><trkpt lat="45.3394315" lon="8.4178033"><ele>128.0</ele><time>2026-05-03T17:06:16.193Z</time></trkpt><trkpt lat="45.3395113" lon="8.4178975"><ele>128.0</ele><time>2026-05-03T17:06:18.192Z</time></trkpt><trkpt lat="45.3395857" lon="8.4179949"><ele>128.0</ele><time>2026-05-03T17:06:20.197Z</time></trkpt><trkpt lat="45.3396706" lon="8.4180875"><ele>128.0</ele><time>2026-05-03T17:06:22.192Z</time></trkpt><trkpt lat="45.3397398" lon="8.4181904"><ele>128.0</ele><time>2026-05-03T17:06:24.198Z</time></trkpt><trkpt lat="45.3398162" lon="8.4182931"><ele>127.2</ele><time>2026-05-03T17:06:26.201Z</time></trkpt><trkpt lat="45.3399013" lon="8.4183981"><ele>126.4</ele><time>2026-05-03T17:06:28.191Z</time></trkpt><trkpt lat="45.3399845" lon="8.4184992"><ele>125.60000000000001</ele><time>2026-05-03T17:06:30.191Z</time></trkpt><trkpt lat="45.3400553" lon="8.4186003"><ele>124.80000000000001</ele><time>2026-05-03T17:06:32.202Z</time></trkpt><trkpt lat="45.3401329" lon="8.4186806"><ele>124.0</ele><time>2026-05-03T17:06:34.197Z</time></trkpt><trkpt lat="45.3401923" lon="8.418762"><ele>124.00000000000001</ele><time>2026-05-03T17:06:36.195Z</time></trkpt><trkpt lat="45.3402501" lon="8.4188416"><ele>124.0</ele><time>2026-05-03T17:06:38.194Z</time></trkpt><trkpt lat="45.34031" lon="8.4189138"><ele>124.0</ele><time>2026-05-03T17:06:40.191Z</time></trkpt><trkpt lat="45.3403642" lon="8.4189868"><ele>124.0</ele><time>2026-05-03T17:06:42.191Z</time></trkpt><trkpt lat="45.3404152" lon="8.4190529"><ele>124.00000000000001</ele><time>2026-05-03T17:06:44.192Z</time></trkpt><trkpt lat="45.340463" lon="8.4191168"><ele>124.0</ele><time>2026-05-03T17:06:46.191Z</time></trkpt><trkpt lat="45.3405329" lon="8.4192033"><ele>124.00000000000001</ele><time>2026-05-03T17:06:49.195Z</time></trkpt><trkpt lat="45.3405936" lon="8.4192821"><ele>124.0</ele><time>2026-05-03T17:06:52.193Z</time></trkpt><trkpt lat="45.3406572" lon="8.4193645"><ele>124.0</ele><time>2026-05-03T17:06:55.193Z</time></trkpt><trkpt lat="45.3407239" lon="8.4194285"><ele>124.0</ele><time>2026-05-03T17:06:58.194Z</time></trkpt><trkpt lat="45.3407959" lon="8.4194636"><ele>124.00000000000001</ele><time>2026-05-03T17:07:01.197Z</time></trkpt><trkpt lat="45.3408676" lon="8.419511"><ele>124.0</ele><time>2026-05-03T17:07:04.194Z</time></trkpt><trkpt lat="45.3409441" lon="8.4195416"><ele>124.0</ele><time>2026-05-03T17:07:07.194Z</time></trkpt><trkpt lat="45.3410308" lon="8.4195624"><ele>124.00000000000001</ele><time>2026-05-03T17:07:10.198Z</time></trkpt><trkpt lat="45.3410941" lon="8.4195712"><ele>124.0</ele><time>2026-05-03T17:07:12.192Z</time></trkpt><trkpt lat="45.3411592" lon="8.4195701"><ele>124.0</ele><time>2026-05-03T17:07:14.193Z</time></trkpt><trkpt lat="45.3412325" lon="8.419582"><ele>124.00000000000001</ele><time>2026-05-03T17:07:16.192Z</time></trkpt><trkpt lat="45.3413022" lon="8.4195819"><ele>124.0</ele><time>2026-05-03T17:07:18.195Z</time></trkpt><trkpt lat="45.3413823" lon="8.4196023"><ele>124.0</ele><time>2026-05-03T17:07:21.19Z</time></trkpt><trkpt lat="45.341341" lon="8.4195314"><ele>124.0</ele><time>2026-05-03T17:07:27.197Z</time></trkpt><trkpt lat="45.3412767" lon="8.4195228"><ele>124.00000000000001</ele><time>2026-05-03T17:07:29.2Z</time></trkpt><trkpt lat="45.3411903" lon="8.4195296"><ele>124.0</ele><time>2026-05-03T17:07:32.193Z</time></trkpt><trkpt lat="45.3411191" lon="8.4195366"><ele>124.0</ele><time>2026-05-03T17:07:35.195Z</time></trkpt><trkpt lat="45.341054" lon="8.4195192"><ele>124.00000000000001</ele><time>2026-05-03T17:07:38.193Z</time></trkpt><trkpt lat="45.3409895" lon="8.4195002"><ele>124.0</ele><time>2026-05-03T17:07:40.191Z</time></trkpt><trkpt lat="45.3409184" lon="8.4194809"><ele>124.0</ele><time>2026-05-03T17:07:42.193Z</time></trkpt><trkpt lat="45.3408164" lon="8.4194828"><ele>124.0</ele><time>2026-05-03T17:07:44.192Z</time></trkpt><trkpt lat="45.3407321" lon="8.419412"><ele>124.0</ele><time>2026-05-03T17:07:46.191Z</time></trkpt><trkpt lat="45.3406454" lon="8.4193053"><ele>124.0</ele><time>2026-05-03T17:07:48.2Z</time></trkpt><trkpt lat="45.3405469" lon="8.4191934"><ele>124.0</ele><time>2026-05-03T17:07:50.201Z</time></trkpt><trkpt lat="45.3404956" lon="8.4191282"><ele>124.0</ele><time>2026-05-03T17:07:51.193Z</time></trkpt><trkpt lat="45.3404433" lon="8.4190566"><ele>124.00000000000001</ele><time>2026-05-03T17:07:52.195Z</time></trkpt><trkpt lat="45.340388" lon="8.4189855"><ele>124.0</ele><time>2026-05-03T17:07:53.195Z</time></trkpt><trkpt lat="45.3403389" lon="8.4189116"><ele>124.0</ele><time>2026-05-03T17:07:54.197Z</time></trkpt><trkpt lat="45.3402822" lon="8.4188364"><ele>124.0</ele><time>2026-05-03T17:07:55.195Z</time></trkpt><trkpt lat="45.3402152" lon="8.4187611"><ele>124.00000000000001</ele><time>2026-05-03T17:07:56.2Z</time></trkpt><trkpt lat="45.3401537" lon="8.4186822"><ele>124.0</ele><time>2026-05-03T17:07:57.191Z</time></trkpt><trkpt lat="45.3400894" lon="8.4186005"><ele>124.00000000000001</ele><time>2026-05-03T17:07:58.194Z</time></trkpt><trkpt lat="45.3400203" lon="8.418527"><ele>124.0</ele><time>2026-05-03T17:07:59.194Z</time></trkpt><trkpt lat="45.3399584" lon="8.4184426"><ele>124.0</ele><time>2026-05-03T17:08:00.191Z</time></trkpt><trkpt lat="45.3398925" lon="8.4183577"><ele>124.0</ele><time>2026-05-03T17:08:01.194Z</time></trkpt><trkpt lat="45.3398378" lon="8.4182804"><ele>124.00000000000001</ele><time>2026-05-03T17:08:02.191Z</time></trkpt><trkpt lat="45.3397781" lon="8.4182067"><ele>124.0</ele><time>2026-05-03T17:08:03.19Z</time></trkpt><trkpt lat="45.3397226" lon="8.4181356"><ele>124.14285714285715</ele><time>2026-05-03T17:08:04.197Z</time></trkpt><trkpt lat="45.3396721" lon="8.4180611"><ele>124.2857142857143</ele><time>2026-05-03T17:08:05.199Z</time></trkpt><trkpt lat="45.3396229" lon="8.41799"><ele>124.42857142857143</ele><time>2026-05-03T17:08:06.192Z</time></trkpt><trkpt lat="45.33957" lon="8.4179192"><ele>124.57142857142858</ele><time>2026-05-03T17:08:07.19Z</time></trkpt><trkpt lat="45.3395203" lon="8.4178512"><ele>124.71428571428572</ele><time>2026-05-03T17:08:08.198Z</time></trkpt><trkpt lat="45.3394701" lon="8.4177839"><ele>124.85714285714286</ele><time>2026-05-03T17:08:09.198Z</time></trkpt><trkpt lat="45.3394176" lon="8.4177218"><ele>125.0</ele><time>2026-05-03T17:08:10.195Z</time></trkpt><trkpt lat="45.3393658" lon="8.4176625"><ele>125.6</ele><time>2026-05-03T17:08:11.194Z</time></trkpt><trkpt lat="45.3392708" lon="8.4175571"><ele>126.2</ele><time>2026-05-03T17:08:13.193Z</time></trkpt><trkpt lat="45.3391582" lon="8.4175145"><ele>126.80000000000001</ele><time>2026-05-03T17:08:15.196Z</time></trkpt><trkpt lat="45.3390388" lon="8.4175489"><ele>127.4</ele><time>2026-05-03T17:08:17.192Z</time></trkpt><trkpt lat="45.3389765" lon="8.4175697"><ele>128.0</ele><time>2026-05-03T17:08:18.193Z</time></trkpt><trkpt lat="45.3388576" lon="8.4176162"><ele>128.20000000000002</ele><time>2026-05-03T17:08:20.195Z</time></trkpt><trkpt lat="45.3387455" lon="8.4176763"><ele>128.4</ele><time>2026-05-03T17:08:22.195Z</time></trkpt><trkpt lat="45.3386259" lon="8.4177379"><ele>128.60000000000002</ele><time>2026-05-03T17:08:24.194Z</time></trkpt><trkpt lat="45.3385684" lon="8.4177775"><ele>128.8</ele><time>2026-05-03T17:08:25.191Z</time></trkpt><trkpt lat="45.3385103" lon="8.4178166"><ele>129.0</ele><time>2026-05-03T17:08:26.193Z</time></trkpt><trkpt lat="45.3383932" lon="8.4178794"><ele>129.0</ele><time>2026-05-03T17:08:28.195Z</time></trkpt><trkpt lat="45.3382828" lon="8.4179525"><ele>129.0</ele><time>2026-05-03T17:08:30.192Z</time></trkpt><trkpt lat="45.3381775" lon="8.4180167"><ele>129.0</ele><time>2026-05-03T17:08:32.198Z</time></trkpt><trkpt lat="45.338073" lon="8.4180732"><ele>129.0</ele><time>2026-05-03T17:08:34.193Z</time></trkpt><trkpt lat="45.3380186" lon="8.4182003"><ele>128.66666666666666</ele><time>2026-05-03T17:08:36.193Z</time></trkpt><trkpt lat="45.3380291" lon="8.4183316"><ele>128.33333333333334</ele><time>2026-05-03T17:08:38.196Z</time></trkpt><trkpt lat="45.3380416" lon="8.418459"><ele>128.0</ele><time>2026-05-03T17:08:40.192Z</time></trkpt><trkpt lat="45.3380447" lon="8.4185737"><ele>127.66666666666667</ele><time>2026-05-03T17:08:42.195Z</time></trkpt><trkpt lat="45.3381047" lon="8.4185331"><ele>127.33333333333334</ele><time>2026-05-03T17:08:46.195Z</time></trkpt><trkpt lat="45.3381123" lon="8.418431"><ele>127.0</ele><time>2026-05-03T17:08:48.19Z</time></trkpt><trkpt lat="45.3381062" lon="8.4183129"><ele>127.0</ele><time>2026-05-03T17:08:50.188Z</time></trkpt><trkpt lat="45.3380842" lon="8.4181985"><ele>126.99999999999999</ele><time>2026-05-03T17:08:52.188Z</time></trkpt><trkpt lat="45.3380207" lon="8.4180847"><ele>126.99999999999999</ele><time>2026-05-03T17:08:54.195Z</time></trkpt><trkpt lat="45.337925" lon="8.4179679"><ele>127.0</ele><time>2026-05-03T17:08:56.195Z</time></trkpt><trkpt lat="45.3378975" lon="8.4178439"><ele>127.0</ele><time>2026-05-03T17:08:58.199Z</time></trkpt><trkpt lat="45.3378612" lon="8.417699"><ele>127.0</ele><time>2026-05-03T17:09:00.198Z</time></trkpt><trkpt lat="45.3378306" lon="8.4175573"><ele>126.99999999999999</ele><time>2026-05-03T17:09:02.201Z</time></trkpt><trkpt lat="45.3378007" lon="8.4173972"><ele>126.99999999999999</ele><time>2026-05-03T17:09:04.191Z</time></trkpt><trkpt lat="45.3377683" lon="8.417243"><ele>127.0</ele><time>2026-05-03T17:09:06.194Z</time></trkpt><trkpt lat="45.3377362" lon="8.4170949"><ele>127.0</ele><time>2026-05-03T17:09:08.199Z</time></trkpt><trkpt lat="45.3377078" lon="8.4169546"><ele>127.0</ele><time>2026-05-03T17:09:10.204Z</time></trkpt><trkpt lat="45.337674" lon="8.4168148"><ele>126.99999999999999</ele><time>2026-05-03T17:09:12.191Z</time></trkpt><trkpt lat="45.3376424" lon="8.4166819"><ele>126.99999999999999</ele><time>2026-05-03T17:09:14.192Z</time></trkpt><trkpt lat="45.33761" lon="8.4165494"><ele>127.0</ele><time>2026-05-03T17:09:16.202Z</time></trkpt><trkpt lat="45.3375799" lon="8.416411"><ele>127.0</ele><time>2026-05-03T17:09:18.197Z</time></trkpt><trkpt lat="45.3375495" lon="8.4162701"><ele>127.16666666666667</ele><time>2026-05-03T17:09:20.206Z</time></trkpt><trkpt lat="45.3375086" lon="8.4161655"><ele>127.33333333333334</ele><time>2026-05-03T17:09:22.193Z</time></trkpt><trkpt lat="45.337501" lon="8.4160723"><ele>127.5</ele><time>2026-05-03T17:09:24.188Z</time></trkpt><trkpt lat="45.3375414" lon="8.415979"><ele>127.66666666666666</ele><time>2026-05-03T17:09:26.198Z</time></trkpt><trkpt lat="45.337596" lon="8.4158998"><ele>127.83333333333333</ele><time>2026-05-03T17:09:28.201Z</time></trkpt><trkpt lat="45.3376621" lon="8.4158367"><ele>128.0</ele><time>2026-05-03T17:09:30.195Z</time></trkpt><trkpt lat="45.337739" lon="8.4157836"><ele>127.99999999999999</ele><time>2026-05-03T17:09:32.202Z</time></trkpt><trkpt lat="45.3378229" lon="8.4157382"><ele>128.0</ele><time>2026-05-03T17:09:34.196Z</time></trkpt><trkpt lat="45.3379051" lon="8.4156939"><ele>128.0</ele><time>2026-05-03T17:09:36.193Z</time></trkpt><trkpt lat="45.3379859" lon="8.4156615"><ele>128.0</ele><time>2026-05-03T17:09:38.19Z</time></trkpt><trkpt lat="45.338054" lon="8.4156465"><ele>127.99999999999999</ele><time>2026-05-03T17:09:40.196Z</time></trkpt><trkpt lat="45.3381362" lon="8.415614"><ele>128.0</ele><time>2026-05-03T17:09:43.192Z</time></trkpt><trkpt lat="45.3382001" lon="8.4155783"><ele>128.0</ele><time>2026-05-03T17:09:46.193Z</time></trkpt><trkpt lat="45.3381471" lon="8.4156272"><ele>127.99999999999999</ele><time>2026-05-03T17:09:51.194Z</time></trkpt><trkpt lat="45.3380625" lon="8.4156764"><ele>128.0</ele><time>2026-05-03T17:09:54.193Z</time></trkpt><trkpt lat="45.338" lon="8.4157112"><ele>128.0</ele><time>2026-05-03T17:09:56.192Z</time></trkpt><trkpt lat="45.3379303" lon="8.415742"><ele>127.99999999999999</ele><time>2026-05-03T17:09:58.195Z</time></trkpt><trkpt lat="45.3378576" lon="8.4157784"><ele>128.0</ele><time>2026-05-03T17:10:00.189Z</time></trkpt><trkpt lat="45.3377849" lon="8.4158142"><ele>128.0</ele><time>2026-05-03T17:10:02.191Z</time></trkpt><trkpt lat="45.3377082" lon="8.415851"><ele>127.99999999999999</ele><time>2026-05-03T17:10:04.194Z</time></trkpt><trkpt lat="45.3376359" lon="8.4158921"><ele>128.0</ele><time>2026-05-03T17:10:06.193Z</time></trkpt><trkpt lat="45.3375609" lon="8.4159551"><ele>128.0</ele><time>2026-05-03T17:10:08.202Z</time></trkpt><trkpt lat="45.337511" lon="8.4160592"><ele>128.0</ele><time>2026-05-03T17:10:10.188Z</time></trkpt><trkpt lat="45.337546" lon="8.4161729"><ele>127.99999999999999</ele><time>2026-05-03T17:10:12.2Z</time></trkpt><trkpt lat="45.337563" lon="8.4162981"><ele>128.0</ele><time>2026-05-03T17:10:14.192Z</time></trkpt><trkpt lat="45.3376061" lon="8.4164204"><ele>127.80000000000001</ele><time>2026-05-03T17:10:16.196Z</time></trkpt><trkpt lat="45.3376318" lon="8.4165467"><ele>127.60000000000001</ele><time>2026-05-03T17:10:18.194Z</time></trkpt><trkpt lat="45.337662" lon="8.4166871"><ele>127.39999999999999</ele><time>2026-05-03T17:10:20.196Z</time></trkpt><trkpt lat="45.3376844" lon="8.4168281"><ele>127.19999999999999</ele><time>2026-05-03T17:10:22.194Z</time></trkpt><trkpt lat="45.3377126" lon="8.4169728"><ele>127.0</ele><time>2026-05-03T17:10:24.203Z</time></trkpt><trkpt lat="45.3377493" lon="8.417111"><ele>127.19999999999999</ele><time>2026-05-03T17:10:26.195Z</time></trkpt><trkpt lat="45.3377806" lon="8.4172358"><ele>127.39999999999999</ele><time>2026-05-03T17:10:28.192Z</time></trkpt><trkpt lat="45.3378101" lon="8.4173789"><ele>127.60000000000001</ele><time>2026-05-03T17:10:30.198Z</time></trkpt><trkpt lat="45.3378351" lon="8.4175277"><ele>127.80000000000001</ele><time>2026-05-03T17:10:32.2Z</time></trkpt><trkpt lat="45.3378598" lon="8.4176753"><ele>128.0</ele><time>2026-05-03T17:10:34.195Z</time></trkpt><trkpt lat="45.3378834" lon="8.4178086"><ele>127.99999999999999</ele><time>2026-05-03T17:10:36.199Z</time></trkpt><trkpt lat="45.3379096" lon="8.4179431"><ele>128.0</ele><time>2026-05-03T17:10:38.193Z</time></trkpt><trkpt lat="45.3379273" lon="8.4180476"><ele>128.0</ele><time>2026-05-03T17:10:40.193Z</time></trkpt><trkpt lat="45.337978" lon="8.4181214"><ele>128.0</ele><time>2026-05-03T17:10:42.191Z</time></trkpt><trkpt lat="45.3380205" lon="8.4182272"><ele>127.99999999999999</ele><time>2026-05-03T17:10:44.193Z</time></trkpt><trkpt lat="45.3380491" lon="8.4183763"><ele>128.0</ele><time>2026-05-03T17:10:46.199Z</time></trkpt><trkpt lat="45.3380632" lon="8.4185298"><ele>127.60000000000001</ele><time>2026-05-03T17:10:48.201Z</time></trkpt><trkpt lat="45.3380805" lon="8.4186838"><ele>127.20000000000002</ele><time>2026-05-03T17:10:50.194Z</time></trkpt><trkpt lat="45.3380894" lon="8.4188413"><ele>126.8</ele><time>2026-05-03T17:10:52.192Z</time></trkpt><trkpt lat="45.3381104" lon="8.4189947"><ele>126.4</ele><time>2026-05-03T17:10:54.195Z</time></trkpt><trkpt lat="45.3381202" lon="8.4191492"><ele>126.0</ele><time>2026-05-03T17:10:56.198Z</time></trkpt><trkpt lat="45.3381415" lon="8.4193026"><ele>126.0</ele><time>2026-05-03T17:10:58.19Z</time></trkpt><trkpt lat="45.3381569" lon="8.4194584"><ele>126.0</ele><time>2026-05-03T17:11:00.195Z</time></trkpt><trkpt lat="45.3381725" lon="8.4196093"><ele>126.0</ele><time>2026-05-03T17:11:02.192Z</time></trkpt><trkpt lat="45.3381923" lon="8.419764"><ele>126.0</ele><time>2026-05-03T17:11:04.198Z</time></trkpt><trkpt lat="45.3382183" lon="8.4199128"><ele>126.0</ele><time>2026-05-03T17:11:06.201Z</time></trkpt><trkpt lat="45.3382324" lon="8.4200685"><ele>126.0</ele><time>2026-05-03T17:11:08.191Z</time></trkpt><trkpt lat="45.3382468" lon="8.4202248"><ele>126.0</ele><time>2026-05-03T17:11:10.193Z</time></trkpt><trkpt lat="45.3382556" lon="8.4203792"><ele>126.0</ele><time>2026-05-03T17:11:12.196Z</time></trkpt><trkpt lat="45.3382687" lon="8.4205325"><ele>126.0</ele><time>2026-05-03T17:11:14.195Z</time></trkpt><trkpt lat="45.3382817" lon="8.4206923"><ele>126.0</ele><time>2026-05-03T17:11:16.193Z</time></trkpt><trkpt lat="45.3382971" lon="8.4208522"><ele>125.8</ele><time>2026-05-03T17:11:18.195Z</time></trkpt><trkpt lat="45.3383153" lon="8.4210054"><ele>125.6</ele><time>2026-05-03T17:11:20.195Z</time></trkpt><trkpt lat="45.3383284" lon="8.4211596"><ele>125.4</ele><time>2026-05-03T17:11:22.193Z</time></trkpt><trkpt lat="45.3383479" lon="8.4213101"><ele>125.2</ele><time>2026-05-03T17:11:24.191Z</time></trkpt><trkpt lat="45.3383627" lon="8.4214663"><ele>125.0</ele><time>2026-05-03T17:11:26.198Z</time></trkpt><trkpt lat="45.3383851" lon="8.4216156"><ele>125.0</ele><time>2026-05-03T17:11:28.196Z</time></trkpt><trkpt lat="45.3384017" lon="8.4217684"><ele>125.0</ele><time>2026-05-03T17:11:30.199Z</time></trkpt><trkpt lat="45.33842" lon="8.4219196"><ele>125.0</ele><time>2026-05-03T17:11:32.195Z</time></trkpt><trkpt lat="45.3384428" lon="8.4220668"><ele>125.0</ele><time>2026-05-03T17:11:34.198Z</time></trkpt><trkpt lat="45.3384461" lon="8.4222132"><ele>125.0</ele><time>2026-05-03T17:11:36.194Z</time></trkpt><trkpt lat="45.338467" lon="8.4223647"><ele>125.2</ele><time>2026-05-03T17:11:38.194Z</time></trkpt><trkpt lat="45.3384871" lon="8.4225173"><ele>125.4</ele><time>2026-05-03T17:11:40.192Z</time></trkpt><trkpt lat="45.3385021" lon="8.4226626"><ele>125.6</ele><time>2026-05-03T17:11:42.189Z</time></trkpt><trkpt lat="45.3384822" lon="8.422798"><ele>125.8</ele><time>2026-05-03T17:11:44.193Z</time></trkpt><trkpt lat="45.3384156" lon="8.4228981"><ele>126.0</ele><time>2026-05-03T17:11:46.191Z</time></trkpt><trkpt lat="45.3383382" lon="8.4229607"><ele>126.0</ele><time>2026-05-03T17:11:48.207Z</time></trkpt><trkpt lat="45.3382498" lon="8.4229933"><ele>126.0</ele><time>2026-05-03T17:11:50.199Z</time></trkpt><trkpt lat="45.3381515" lon="8.4230327"><ele>126.0</ele><time>2026-05-03T17:11:52.192Z</time></trkpt><trkpt lat="45.3380518" lon="8.4230701"><ele>126.0</ele><time>2026-05-03T17:11:54.194Z</time></trkpt><trkpt lat="45.3379494" lon="8.423121"><ele>126.0</ele><time>2026-05-03T17:11:56.197Z</time></trkpt><trkpt lat="45.3378465" lon="8.4231725"><ele>126.0</ele><time>2026-05-03T17:11:58.192Z</time></trkpt><trkpt lat="45.3377564" lon="8.4232123"><ele>126.0</ele><time>2026-05-03T17:12:00.196Z</time></trkpt><trkpt lat="45.337668" lon="8.4232551"><ele>126.0</ele><time>2026-05-03T17:12:02.195Z</time></trkpt><trkpt lat="45.3375679" lon="8.4232948"><ele>126.0</ele><time>2026-05-03T17:12:04.199Z</time></trkpt><trkpt lat="45.3374685" lon="8.4233319"><ele>126.0</ele><time>2026-05-03T17:12:06.195Z</time></trkpt><trkpt lat="45.3373776" lon="8.4233587"><ele>126.0</ele><time>2026-05-03T17:12:08.192Z</time></trkpt><trkpt lat="45.3372878" lon="8.4234021"><ele>126.0</ele><time>2026-05-03T17:12:10.196Z</time></trkpt><trkpt lat="45.337199" lon="8.4234315"><ele>126.0</ele><time>2026-05-03T17:12:12.191Z</time></trkpt><trkpt lat="45.3371136" lon="8.423463"><ele>126.0</ele><time>2026-05-03T17:12:14.189Z</time></trkpt><trkpt lat="45.3370297" lon="8.423509"><ele>126.0</ele><time>2026-05-03T17:12:16.192Z</time></trkpt><trkpt lat="45.336948" lon="8.423545"><ele>126.16666666666667</ele><time>2026-05-03T17:12:18.192Z</time></trkpt><trkpt lat="45.3368705" lon="8.4235856"><ele>126.33333333333334</ele><time>2026-05-03T17:12:20.196Z</time></trkpt><trkpt lat="45.3367825" lon="8.4236328"><ele>126.5</ele><time>2026-05-03T17:12:45.194Z</time></trkpt><trkpt lat="45.3367216" lon="8.4236727"><ele>126.66666666666667</ele><time>2026-05-03T17:12:48.194Z</time></trkpt><trkpt lat="45.336661" lon="8.4237047"><ele>126.83333333333334</ele><time>2026-05-03T17:12:50.199Z</time></trkpt><trkpt lat="45.3365897" lon="8.4237362"><ele>127.0</ele><time>2026-05-03T17:12:52.195Z</time></trkpt><trkpt lat="45.3365099" lon="8.4237655"><ele>127.0</ele><time>2026-05-03T17:12:54.19Z</time></trkpt><trkpt lat="45.3364137" lon="8.4237944"><ele>126.99999999999999</ele><time>2026-05-03T17:12:56.198Z</time></trkpt><trkpt lat="45.3363116" lon="8.4238339"><ele>126.99999999999999</ele><time>2026-05-03T17:12:58.2Z</time></trkpt><trkpt lat="45.3362098" lon="8.4238795"><ele>127.0</ele><time>2026-05-03T17:13:00.2Z</time></trkpt><trkpt lat="45.336106" lon="8.4239287"><ele>127.0</ele><time>2026-05-03T17:13:02.198Z</time></trkpt><trkpt lat="45.3360045" lon="8.4239804"><ele>126.6</ele><time>2026-05-03T17:13:04.197Z</time></trkpt><trkpt lat="45.3358972" lon="8.4240228"><ele>126.19999999999999</ele><time>2026-05-03T17:13:06.197Z</time></trkpt><trkpt lat="45.3357947" lon="8.4240871"><ele>125.8</ele><time>2026-05-03T17:13:08.2Z</time></trkpt><trkpt lat="45.3356945" lon="8.4241396"><ele>125.4</ele><time>2026-05-03T17:13:10.196Z</time></trkpt><trkpt lat="45.3355996" lon="8.4241746"><ele>125.0</ele><time>2026-05-03T17:13:12.189Z</time></trkpt><trkpt lat="45.3355004" lon="8.4242036"><ele>124.99999999999999</ele><time>2026-05-03T17:13:14.192Z</time></trkpt><trkpt lat="45.3354178" lon="8.4242399"><ele>125.0</ele><time>2026-05-03T17:13:16.2Z</time></trkpt><trkpt lat="45.3353577" lon="8.4242108"><ele>125.0</ele><time>2026-05-03T17:13:18.193Z</time></trkpt><trkpt lat="45.3353243" lon="8.4241132"><ele>125.0</ele><time>2026-05-03T17:13:20.2Z</time></trkpt><trkpt lat="45.3352939" lon="8.4239837"><ele>124.99999999999999</ele><time>2026-05-03T17:13:22.203Z</time></trkpt><trkpt lat="45.3352606" lon="8.4238413"><ele>125.0</ele><time>2026-05-03T17:13:24.193Z</time></trkpt><trkpt lat="45.3352282" lon="8.4237066"><ele>125.4</ele><time>2026-05-03T17:13:26.196Z</time></trkpt><trkpt lat="45.3352047" lon="8.423567"><ele>125.8</ele><time>2026-05-03T17:13:28.195Z</time></trkpt><trkpt lat="45.3351749" lon="8.4234185"><ele>126.19999999999999</ele><time>2026-05-03T17:13:30.196Z</time></trkpt><trkpt lat="45.3351392" lon="8.4232733"><ele>126.6</ele><time>2026-05-03T17:13:32.2Z</time></trkpt><trkpt lat="45.3350979" lon="8.4231488"><ele>127.0</ele><time>2026-05-03T17:13:34.197Z</time></trkpt><trkpt lat="45.3350625" lon="8.4230084"><ele>127.0</ele><time>2026-05-03T17:13:36.197Z</time></trkpt><trkpt lat="45.335027" lon="8.4228531"><ele>127.0</ele><time>2026-05-03T17:13:38.201Z</time></trkpt><trkpt lat="45.3349926" lon="8.4226924"><ele>127.0</ele><time>2026-05-03T17:13:40.202Z</time></trkpt><trkpt lat="45.3349579" lon="8.4225317"><ele>127.0</ele><time>2026-05-03T17:13:42.198Z</time></trkpt><trkpt lat="45.3349245" lon="8.422368"><ele>127.0</ele><time>2026-05-03T17:13:44.193Z</time></trkpt><trkpt lat="45.3348878" lon="8.4222165"><ele>127.0</ele><time>2026-05-03T17:13:46.199Z</time></trkpt><trkpt lat="45.3348524" lon="8.42205"><ele>127.0</ele><time>2026-05-03T17:13:48.195Z</time></trkpt><trkpt lat="45.3348119" lon="8.4218853"><ele>127.0</ele><time>2026-05-03T17:13:50.193Z</time></trkpt><trkpt lat="45.3347735" lon="8.4217279"><ele>127.0</ele><time>2026-05-03T17:13:52.2Z</time></trkpt><trkpt lat="45.3347365" lon="8.4215604"><ele>127.0</ele><time>2026-05-03T17:13:54.196Z</time></trkpt><trkpt lat="45.3346927" lon="8.4213994"><ele>127.0</ele><time>2026-05-03T17:13:56.197Z</time></trkpt><trkpt lat="45.3346683" lon="8.421232"><ele>127.0</ele><time>2026-05-03T17:13:58.199Z</time></trkpt><trkpt lat="45.334638" lon="8.4210674"><ele>127.0</ele><time>2026-05-03T17:14:00.193Z</time></trkpt><trkpt lat="45.3345996" lon="8.4209156"><ele>126.99999999999999</ele><time>2026-05-03T17:14:02.188Z</time></trkpt><trkpt lat="45.3345614" lon="8.420768"><ele>126.99999999999999</ele><time>2026-05-03T17:14:04.191Z</time></trkpt><trkpt lat="45.334553" lon="8.4206215"><ele>127.0</ele><time>2026-05-03T17:14:06.194Z</time></trkpt><trkpt lat="45.3345229" lon="8.4204953"><ele>127.0</ele><time>2026-05-03T17:14:08.197Z</time></trkpt><trkpt lat="45.3345007" lon="8.420384"><ele>127.16666666666667</ele><time>2026-05-03T17:14:10.196Z</time></trkpt><trkpt lat="45.3344692" lon="8.4202983"><ele>127.33333333333334</ele><time>2026-05-03T17:14:13.194Z</time></trkpt><trkpt lat="45.3344405" lon="8.4201829"><ele>127.5</ele><time>2026-05-03T17:14:18.188Z</time></trkpt><trkpt lat="45.3344165" lon="8.4200488"><ele>127.66666666666666</ele><time>2026-05-03T17:14:21.202Z</time></trkpt><trkpt lat="45.334387" lon="8.419923"><ele>127.83333333333333</ele><time>2026-05-03T17:14:23.199Z</time></trkpt><trkpt lat="45.3343588" lon="8.4197864"><ele>128.0</ele><time>2026-05-03T17:14:25.207Z</time></trkpt><trkpt lat="45.3343291" lon="8.4196607"><ele>128.20000000000002</ele><time>2026-05-03T17:14:27.202Z</time></trkpt><trkpt lat="45.3343083" lon="8.4195172"><ele>128.4</ele><time>2026-05-03T17:14:29.195Z</time></trkpt><trkpt lat="45.3342745" lon="8.4193824"><ele>128.60000000000002</ele><time>2026-05-03T17:14:31.21Z</time></trkpt><trkpt lat="45.334237" lon="8.4192523"><ele>128.8</ele><time>2026-05-03T17:14:33.195Z</time></trkpt><trkpt lat="45.3342046" lon="8.4191113"><ele>129.0</ele><time>2026-05-03T17:14:35.194Z</time></trkpt><trkpt lat="45.3341761" lon="8.4189419"><ele>129.0</ele><time>2026-05-03T17:14:37.2Z</time></trkpt><trkpt lat="45.3341421" lon="8.418784"><ele>129.0</ele><time>2026-05-03T17:14:39.204Z</time></trkpt><trkpt lat="45.3341064" lon="8.4186301"><ele>129.0</ele><time>2026-05-03T17:14:41.2Z</time></trkpt><trkpt lat="45.334071" lon="8.4184795"><ele>129.0</ele><time>2026-05-03T17:14:43.192Z</time></trkpt><trkpt lat="45.3340362" lon="8.4183265"><ele>129.0</ele><time>2026-05-03T17:14:45.194Z</time></trkpt><trkpt lat="45.3339976" lon="8.4181784"><ele>129.0</ele><time>2026-05-03T17:14:47.191Z</time></trkpt><trkpt lat="45.333965" lon="8.4180267"><ele>129.0</ele><time>2026-05-03T17:14:49.195Z</time></trkpt><trkpt lat="45.3339287" lon="8.4178701"><ele>129.0</ele><time>2026-05-03T17:14:51.19Z</time></trkpt><trkpt lat="45.3338933" lon="8.4177191"><ele>128.6</ele><time>2026-05-03T17:14:53.195Z</time></trkpt><trkpt lat="45.3338569" lon="8.4175679"><ele>128.2</ele><time>2026-05-03T17:14:55.196Z</time></trkpt><trkpt lat="45.3338245" lon="8.4174138"><ele>127.79999999999998</ele><time>2026-05-03T17:14:57.19Z</time></trkpt><trkpt lat="45.3337921" lon="8.4172616"><ele>127.39999999999999</ele><time>2026-05-03T17:14:59.195Z</time></trkpt><trkpt lat="45.3337605" lon="8.4171192"><ele>127.0</ele><time>2026-05-03T17:15:01.19Z</time></trkpt><trkpt lat="45.3337315" lon="8.4169733"><ele>126.8</ele><time>2026-05-03T17:15:03.19Z</time></trkpt><trkpt lat="45.3336946" lon="8.4168384"><ele>126.6</ele><time>2026-05-03T17:15:05.192Z</time></trkpt><trkpt lat="45.3336708" lon="8.416692"><ele>126.39999999999999</ele><time>2026-05-03T17:15:07.19Z</time></trkpt><trkpt lat="45.3336437" lon="8.4165416"><ele>126.19999999999999</ele><time>2026-05-03T17:15:09.194Z</time></trkpt><trkpt lat="45.3335984" lon="8.4163908"><ele>126.0</ele><time>2026-05-03T17:15:11.193Z</time></trkpt><trkpt lat="45.333564" lon="8.416243"><ele>125.6</ele><time>2026-05-03T17:15:13.2Z</time></trkpt><trkpt lat="45.3335295" lon="8.4160934"><ele>125.19999999999999</ele><time>2026-05-03T17:15:15.191Z</time></trkpt><trkpt lat="45.3334911" lon="8.4159488"><ele>124.80000000000001</ele><time>2026-05-03T17:15:17.192Z</time></trkpt><trkpt lat="45.3334586" lon="8.4158097"><ele>124.4</ele><time>2026-05-03T17:15:19.196Z</time></trkpt><trkpt lat="45.3334317" lon="8.4156668"><ele>124.0</ele><time>2026-05-03T17:15:21.195Z</time></trkpt><trkpt lat="45.3334035" lon="8.4155201"><ele>124.2</ele><time>2026-05-03T17:15:23.195Z</time></trkpt><trkpt lat="45.3333701" lon="8.4153805"><ele>124.4</ele><time>2026-05-03T17:15:25.2Z</time></trkpt><trkpt lat="45.3333367" lon="8.4152437"><ele>124.6</ele><time>2026-05-03T17:15:27.191Z</time></trkpt><trkpt lat="45.3333023" lon="8.4151096"><ele>124.8</ele><time>2026-05-03T17:15:29.192Z</time></trkpt><trkpt lat="45.3332715" lon="8.4149646"><ele>125.0</ele><time>2026-05-03T17:15:31.194Z</time></trkpt><trkpt lat="45.3332403" lon="8.4148219"><ele>125.0</ele><time>2026-05-03T17:15:33.191Z</time></trkpt><trkpt lat="45.3332054" lon="8.4146758"><ele>125.0</ele><time>2026-05-03T17:15:35.204Z</time></trkpt><trkpt lat="45.3331745" lon="8.4145441"><ele>125.0</ele><time>2026-05-03T17:15:37.195Z</time></trkpt><trkpt lat="45.3331409" lon="8.4143917"><ele>125.0</ele><time>2026-05-03T17:15:39.194Z</time></trkpt><trkpt lat="45.3331121" lon="8.4142367"><ele>125.0</ele><time>2026-05-03T17:15:41.196Z</time></trkpt><trkpt lat="45.3330778" lon="8.4140865"><ele>125.4</ele><time>2026-05-03T17:15:43.193Z</time></trkpt><trkpt lat="45.3330411" lon="8.4139425"><ele>125.8</ele><time>2026-05-03T17:15:45.194Z</time></trkpt><trkpt lat="45.3330111" lon="8.4137842"><ele>126.19999999999999</ele><time>2026-05-03T17:15:47.195Z</time></trkpt><trkpt lat="45.3329732" lon="8.4136391"><ele>126.6</ele><time>2026-05-03T17:15:49.196Z</time></trkpt><trkpt lat="45.3329369" lon="8.4134935"><ele>127.0</ele><time>2026-05-03T17:15:51.192Z</time></trkpt><trkpt lat="45.3329028" lon="8.4133503"><ele>127.0</ele><time>2026-05-03T17:15:53.192Z</time></trkpt><trkpt lat="45.3328702" lon="8.413207"><ele>126.99999999999999</ele><time>2026-05-03T17:15:55.197Z</time></trkpt><trkpt lat="45.3328433" lon="8.413057"><ele>126.99999999999999</ele><time>2026-05-03T17:15:57.199Z</time></trkpt><trkpt lat="45.3328153" lon="8.412911"><ele>127.0</ele><time>2026-05-03T17:15:59.202Z</time></trkpt><trkpt lat="45.3327761" lon="8.412772"><ele>127.0</ele><time>2026-05-03T17:16:01.194Z</time></trkpt><trkpt lat="45.332746" lon="8.4126274"><ele>127.0</ele><time>2026-05-03T17:16:03.191Z</time></trkpt><trkpt lat="45.3327185" lon="8.4124814"><ele>126.99999999999999</ele><time>2026-05-03T17:16:05.195Z</time></trkpt><trkpt lat="45.3326882" lon="8.4123418"><ele>126.99999999999999</ele><time>2026-05-03T17:16:07.192Z</time></trkpt><trkpt lat="45.3326603" lon="8.4122023"><ele>127.0</ele><time>2026-05-03T17:16:09.197Z</time></trkpt><trkpt lat="45.3326298" lon="8.4120545"><ele>127.0</ele><time>2026-05-03T17:16:11.195Z</time></trkpt><trkpt lat="45.332594" lon="8.4119061"><ele>127.75</ele><time>2026-05-03T17:16:13.198Z</time></trkpt><trkpt lat="45.3325578" lon="8.4117565"><ele>128.5</ele><time>2026-05-03T17:16:15.198Z</time></trkpt><trkpt lat="45.3325229" lon="8.4116011"><ele>129.25</ele><time>2026-05-03T17:16:17.194Z</time></trkpt><trkpt lat="45.3324848" lon="8.4114508"><ele>130.0</ele><time>2026-05-03T17:16:19.192Z</time></trkpt><trkpt lat="45.3324501" lon="8.4112911"><ele>130.0</ele><time>2026-05-03T17:16:21.199Z</time></trkpt><trkpt lat="45.3324152" lon="8.4111335"><ele>130.0</ele><time>2026-05-03T17:16:23.198Z</time></trkpt><trkpt lat="45.3323775" lon="8.4109794"><ele>130.0</ele><time>2026-05-03T17:16:25.194Z</time></trkpt><trkpt lat="45.3323386" lon="8.4108253"><ele>130.0</ele><time>2026-05-03T17:16:27.201Z</time></trkpt><trkpt lat="45.3323035" lon="8.4106682"><ele>130.0</ele><time>2026-05-03T17:16:29.192Z</time></trkpt><trkpt lat="45.3322671" lon="8.4105109"><ele>130.0</ele><time>2026-05-03T17:16:31.197Z</time></trkpt><trkpt lat="45.3322221" lon="8.4103628"><ele>130.0</ele><time>2026-05-03T17:16:33.189Z</time></trkpt><trkpt lat="45.3321833" lon="8.4102196"><ele>130.0</ele><time>2026-05-03T17:16:35.196Z</time></trkpt><trkpt lat="45.3321451" lon="8.410078"><ele>130.0</ele><time>2026-05-03T17:16:37.191Z</time></trkpt><trkpt lat="45.3321197" lon="8.4099374"><ele>130.16666666666669</ele><time>2026-05-03T17:16:39.19Z</time></trkpt><trkpt lat="45.3320953" lon="8.409801"><ele>130.33333333333334</ele><time>2026-05-03T17:16:41.193Z</time></trkpt><trkpt lat="45.3320709" lon="8.4096843"><ele>130.5</ele><time>2026-05-03T17:16:43.195Z</time></trkpt><trkpt lat="45.3320491" lon="8.4095795"><ele>130.66666666666666</ele><time>2026-05-03T17:16:46.196Z</time></trkpt><trkpt lat="45.3320956" lon="8.4094969"><ele>130.83333333333331</ele><time>2026-05-03T17:16:51.192Z</time></trkpt><trkpt lat="45.3321689" lon="8.40948"><ele>131.0</ele><time>2026-05-03T17:16:54.197Z</time></trkpt><trkpt lat="45.3322528" lon="8.4094383"><ele>131.0</ele><time>2026-05-03T17:16:57.193Z</time></trkpt><trkpt lat="45.3323133" lon="8.4093911"><ele>131.0</ele><time>2026-05-03T17:16:59.195Z</time></trkpt><trkpt lat="45.3323695" lon="8.4093219"><ele>131.0</ele><time>2026-05-03T17:17:01.194Z</time></trkpt><trkpt lat="45.3324317" lon="8.4092744"><ele>131.0</ele><time>2026-05-03T17:17:03.192Z</time></trkpt><trkpt lat="45.3324908" lon="8.4092287"><ele>131.0</ele><time>2026-05-03T17:17:05.2Z</time></trkpt><trkpt lat="45.3325499" lon="8.4091554"><ele>131.0</ele><time>2026-05-03T17:17:07.195Z</time></trkpt><trkpt lat="45.3326286" lon="8.4091017"><ele>131.0</ele><time>2026-05-03T17:17:09.202Z</time></trkpt><trkpt lat="45.3327111" lon="8.4090316"><ele>131.0</ele><time>2026-05-03T17:17:11.202Z</time></trkpt><trkpt lat="45.3328" lon="8.4089682"><ele>131.0</ele><time>2026-05-03T17:17:13.197Z</time></trkpt><trkpt lat="45.3328905" lon="8.4089027"><ele>131.0</ele><time>2026-05-03T17:17:15.191Z</time></trkpt><trkpt lat="45.3329903" lon="8.4088514"><ele>131.0</ele><time>2026-05-03T17:17:17.198Z</time></trkpt><trkpt lat="45.3330846" lon="8.408807"><ele>131.0</ele><time>2026-05-03T17:17:19.203Z</time></trkpt><trkpt lat="45.3331838" lon="8.4087684"><ele>131.2</ele><time>2026-05-03T17:17:21.201Z</time></trkpt><trkpt lat="45.3332738" lon="8.408696"><ele>131.39999999999998</ele><time>2026-05-03T17:17:23.193Z</time></trkpt><trkpt lat="45.3333703" lon="8.4086283"><ele>131.6</ele><time>2026-05-03T17:17:25.197Z</time></trkpt><trkpt lat="45.3334741" lon="8.4085514"><ele>131.79999999999998</ele><time>2026-05-03T17:17:27.196Z</time></trkpt><trkpt lat="45.3335776" lon="8.4084802"><ele>132.0</ele><time>2026-05-03T17:17:29.192Z</time></trkpt><trkpt lat="45.3336834" lon="8.4084111"><ele>132.0</ele><time>2026-05-03T17:17:31.189Z</time></trkpt><trkpt lat="45.3337835" lon="8.4083472"><ele>132.0</ele><time>2026-05-03T17:17:33.196Z</time></trkpt><trkpt lat="45.3338454" lon="8.4083081"><ele>132.0</ele><time>2026-05-03T17:17:34.194Z</time></trkpt><trkpt lat="45.3339636" lon="8.4082432"><ele>132.0</ele><time>2026-05-03T17:17:36.203Z</time></trkpt><trkpt lat="45.3340652" lon="8.4081665"><ele>132.0</ele><time>2026-05-03T17:17:38.192Z</time></trkpt><trkpt lat="45.3341204" lon="8.4081209"><ele>131.75</ele><time>2026-05-03T17:17:39.192Z</time></trkpt><trkpt lat="45.3342277" lon="8.4080547"><ele>131.5</ele><time>2026-05-03T17:17:41.193Z</time></trkpt><trkpt lat="45.3343322" lon="8.4079748"><ele>131.25</ele><time>2026-05-03T17:17:43.197Z</time></trkpt><trkpt lat="45.3344192" lon="8.4078738"><ele>131.0</ele><time>2026-05-03T17:17:45.201Z</time></trkpt><trkpt lat="45.3345064" lon="8.4077655"><ele>131.2</ele><time>2026-05-03T17:17:47.193Z</time></trkpt><trkpt lat="45.3345863" lon="8.4076648"><ele>131.39999999999998</ele><time>2026-05-03T17:17:49.192Z</time></trkpt><trkpt lat="45.3346273" lon="8.4075223"><ele>131.6</ele><time>2026-05-03T17:17:51.197Z</time></trkpt><trkpt lat="45.3346348" lon="8.4073752"><ele>131.79999999999998</ele><time>2026-05-03T17:17:53.198Z</time></trkpt><trkpt lat="45.3346588" lon="8.4072228"><ele>132.0</ele><time>2026-05-03T17:17:55.195Z</time></trkpt><trkpt lat="45.3346984" lon="8.4070636"><ele>132.0</ele><time>2026-05-03T17:17:57.197Z</time></trkpt><trkpt lat="45.3347151" lon="8.4068959"><ele>132.0</ele><time>2026-05-03T17:17:59.194Z</time></trkpt><trkpt lat="45.334705" lon="8.4067361"><ele>132.0</ele><time>2026-05-03T17:18:01.202Z</time></trkpt><trkpt lat="45.3347066" lon="8.4065774"><ele>132.0</ele><time>2026-05-03T17:18:03.191Z</time></trkpt><trkpt lat="45.3347094" lon="8.4064283"><ele>132.0</ele><time>2026-05-03T17:18:05.194Z</time></trkpt><trkpt lat="45.3347121" lon="8.4062861"><ele>131.4</ele><time>2026-05-03T17:18:07.192Z</time></trkpt><trkpt lat="45.3347121" lon="8.4061516"><ele>130.79999999999998</ele><time>2026-05-03T17:18:09.195Z</time></trkpt><trkpt lat="45.3347143" lon="8.4060141"><ele>130.2</ele><time>2026-05-03T17:18:11.192Z</time></trkpt><trkpt lat="45.3347216" lon="8.4058832"><ele>129.6</ele><time>2026-05-03T17:18:13.193Z</time></trkpt><trkpt lat="45.3347244" lon="8.4057635"><ele>129.0</ele><time>2026-05-03T17:18:15.195Z</time></trkpt><trkpt lat="45.3347268" lon="8.4056403"><ele>128.83333333333334</ele><time>2026-05-03T17:18:17.193Z</time></trkpt><trkpt lat="45.3347335" lon="8.4055302"><ele>128.66666666666666</ele><time>2026-05-03T17:18:19.193Z</time></trkpt><trkpt lat="45.3347458" lon="8.4054211"><ele>128.5</ele><time>2026-05-03T17:18:21.193Z</time></trkpt><trkpt lat="45.3347626" lon="8.4053051"><ele>128.33333333333331</ele><time>2026-05-03T17:18:23.189Z</time></trkpt><trkpt lat="45.3347987" lon="8.4052041"><ele>128.16666666666666</ele><time>2026-05-03T17:18:25.196Z</time></trkpt><trkpt lat="45.3348281" lon="8.4050912"><ele>128.0</ele><time>2026-05-03T17:18:27.193Z</time></trkpt><trkpt lat="45.3348386" lon="8.404974"><ele>128.33333333333331</ele><time>2026-05-03T17:18:29.194Z</time></trkpt><trkpt lat="45.334843" lon="8.4048474"><ele>128.66666666666666</ele><time>2026-05-03T17:18:31.194Z</time></trkpt><trkpt lat="45.3348562" lon="8.404725"><ele>129.0</ele><time>2026-05-03T17:18:33.194Z</time></trkpt><trkpt lat="45.3348708" lon="8.4045988"><ele>129.33333333333334</ele><time>2026-05-03T17:18:35.192Z</time></trkpt><trkpt lat="45.3349036" lon="8.404483"><ele>129.66666666666669</ele><time>2026-05-03T17:18:37.19Z</time></trkpt><trkpt lat="45.3349342" lon="8.4043697"><ele>130.0</ele><time>2026-05-03T17:18:39.194Z</time></trkpt><trkpt lat="45.3349595" lon="8.4042646"><ele>130.0</ele><time>2026-05-03T17:18:41.195Z</time></trkpt><trkpt lat="45.3349848" lon="8.4041546"><ele>130.0</ele><time>2026-05-03T17:18:43.196Z</time></trkpt><trkpt lat="45.3350027" lon="8.4040468"><ele>130.0</ele><time>2026-05-03T17:18:45.201Z</time></trkpt><trkpt lat="45.3349937" lon="8.4039283"><ele>130.0</ele><time>2026-05-03T17:18:47.194Z</time></trkpt><trkpt lat="45.334944" lon="8.4038429"><ele>130.0</ele><time>2026-05-03T17:18:49.197Z</time></trkpt><trkpt lat="45.3348688" lon="8.4038014"><ele>130.0</ele><time>2026-05-03T17:18:51.193Z</time></trkpt><trkpt lat="45.3347989" lon="8.4037678"><ele>130.0</ele><time>2026-05-03T17:18:53.199Z</time></trkpt><trkpt lat="45.334747" lon="8.403716"><ele>130.0</ele><time>2026-05-03T17:18:55.197Z</time></trkpt><trkpt lat="45.3347458" lon="8.4036251"><ele>130.0</ele><time>2026-05-03T17:18:57.195Z</time></trkpt><trkpt lat="45.3347642" lon="8.4035287"><ele>130.0</ele><time>2026-05-03T17:18:59.202Z</time></trkpt><trkpt lat="45.3347713" lon="8.4034385"><ele>130.0</ele><time>2026-05-03T17:19:01.19Z</time></trkpt><trkpt lat="45.334788" lon="8.4033508"><ele>130.0</ele><time>2026-05-03T17:19:03.192Z</time></trkpt><trkpt lat="45.3347521" lon="8.4032714"><ele>130.0</ele><time>2026-05-03T17:19:07.197Z</time></trkpt></trkseg></trk></gpx>